Tidelands — WX5026 — position and weather

sailwx.info

Track history (hours):
 
Tides and Currents Weather Stations Pressure Air Temp Water Temp Dewpoint Dewpoint Depression Visibility Wind Speed Wind Dir Waves Ship Positions

Tidelands

Owner: Alpha VesselCo, LLC, Suffolk, VA. More information available from US FCC via Universal Licensing System and Coast Guard Vessel Documentation Center.

Last reported at 2018-Jun-25 07:10 UTC. Time now 2018-Jun-25 11:38 UTC.
Position N 38°24' W 074°54'.

Length 51 m; draft 3 m.

Type: Fishing. MMSI: 367108820.

Date/timePositionNaut miles runAvg speedWind from/ knotsBaromVisibWave heightAir tempDewpointWater temp
2018-Jun-25 07:10N 38°24' W 074°54'  
2018-Jun-22 09:38N 37°45' W 076°13'312.2
2018-Jun-22 09:23N 37°48' W 076°15'3 7.3
2018-Jun-22 09:00N 37°50' W 076°17'0 0.0
2018-Jun-22 07:58N 37°50' W 076°17'0 0.0
2018-Jun-22 06:49N 37°50' W 076°17'61 2.2
2018-Jun-21 02:51N 38°10' W 075°04'4111.2
2018-Jun-20 23:10N 38°46' W 074°38'311.0
2018-Jun-20 22:55N 38°48' W 074°36'4 2.0
2018-Jun-20 21:01N 38°52' W 074°36'011.9
2018-Jun-20 21:00N 38°52' W 074°37'4 0.9
2018-Jun-20 16:41N 38°50' W 074°40'311.6
2018-Jun-20 16:28N 38°47' W 074°41'5 9.2
2018-Jun-20 15:55N 38°42' W 074°44'5 6.5
2018-Jun-20 15:12N 38°46' W 074°40'97 1.9
2018-Jun-18 12:22N 37°40' W 076°11'1 3.4
2018-Jun-18 11:58N 37°39' W 076°11'2 0.7
2018-Jun-18 08:28N 37°40' W 076°14'0 0.4
2018-Jun-18 08:00N 37°40' W 076°14'2 2.6
2018-Jun-18 07:15N 37°42' W 076°13'312.6
2018-Jun-18 07:00N 37°45' W 076°13'  
Track history (hours):
 
Tides and Currents Weather Stations Pressure Air Temp Water Temp Dewpoint Dewpoint Depression Visibility Wind Speed Wind Dir Waves Ship Positions

Tidelands

Owner: Alpha VesselCo, LLC, Suffolk, VA. More information available from US FCC via Universal Licensing System and Coast Guard Vessel Documentation Center.

Last reported at 2018-Jun-25 07:10 UTC. Time now 2018-Jun-25 11:38 UTC.
Position N 38°24' W 074°54'.

Length 51 m; draft 3 m.

Type: Fishing. MMSI: 367108820.

Date/timePositionNaut miles runAvg speedWind from/ knotsBaromVisibWave heightAir tempDewpointWater temp
2018-Jun-25 07:10N 38°24' W 074°54'  
2018-Jun-22 09:38N 37°45' W 076°13'312.2
2018-Jun-22 09:23N 37°48' W 076°15'3 7.3
2018-Jun-22 09:00N 37°50' W 076°17'0 0.0
2018-Jun-22 07:58N 37°50' W 076°17'0 0.0
2018-Jun-22 06:49N 37°50' W 076°17'61 2.2
2018-Jun-21 02:51N 38°10' W 075°04'4111.2
2018-Jun-20 23:10N 38°46' W 074°38'311.0
2018-Jun-20 22:55N 38°48' W 074°36'4 2.0
2018-Jun-20 21:01N 38°52' W 074°36'011.9
2018-Jun-20 21:00N 38°52' W 074°37'4 0.9
2018-Jun-20 16:41N 38°50' W 074°40'311.6
2018-Jun-20 16:28N 38°47' W 074°41'5 9.2
2018-Jun-20 15:55N 38°42' W 074°44'5 6.5
2018-Jun-20 15:12N 38°46' W 074°40'97 1.9
2018-Jun-18 12:22N 37°40' W 076°11'1 3.4
2018-Jun-18 11:58N 37°39' W 076°11'2 0.7
2018-Jun-18 08:28N 37°40' W 076°14'0 0.4
2018-Jun-18 08:00N 37°40' W 076°14'2 2.6
2018-Jun-18 07:15N 37°42' W 076°13'312.6
2018-Jun-18 07:00N 37°45' W 076°13'  

Dump ship's entire track history